createdAt,value
2022-12-11T00:00:28.326Z,-4.90
2022-12-11T00:02:58.471Z,-4.90
2022-12-11T00:05:25.610Z,-4.90
2022-12-11T00:07:52.789Z,-4.90
2022-12-11T00:10:19.909Z,-4.80
2022-12-11T00:12:47.017Z,-4.80
2022-12-11T00:15:14.295Z,-4.80
2022-12-11T00:17:41.467Z,-4.80
2022-12-11T00:20:09.436Z,-4.80
2022-12-11T00:22:36.609Z,-4.80
2022-12-11T00:25:04.642Z,-4.80
2022-12-11T00:27:31.744Z,-4.80
2022-12-11T00:29:58.785Z,-4.80
2022-12-11T00:32:28.358Z,-4.70
2022-12-11T00:34:55.714Z,-4.70
2022-12-11T00:37:22.850Z,-4.70
2022-12-11T00:39:50.175Z,-4.70
2022-12-11T00:42:17.336Z,-4.70
2022-12-11T00:44:44.693Z,-4.70
2022-12-11T00:47:11.837Z,-4.60
2022-12-11T00:49:39.081Z,-4.60
2022-12-11T00:52:06.264Z,-4.60
2022-12-11T00:54:34.595Z,-4.60
2022-12-11T00:57:01.746Z,-4.60
2022-12-11T00:59:29.463Z,-4.60
2022-12-11T01:01:56.564Z,-4.60
2022-12-11T01:04:23.756Z,-4.50
2022-12-11T01:06:50.937Z,-4.60
2022-12-11T01:09:36.937Z,-4.50
2022-12-11T01:12:04.378Z,-4.50
2022-12-11T01:14:31.567Z,-4.50
2022-12-11T01:16:58.818Z,-4.50
2022-12-11T01:19:26.002Z,-4.50
2022-12-11T01:21:53.276Z,-4.50
2022-12-11T01:24:20.362Z,-4.50
2022-12-11T01:26:47.568Z,-4.50
2022-12-11T01:29:14.761Z,-4.50
2022-12-11T01:31:42.320Z,-4.50
2022-12-11T01:34:09.457Z,-4.50
2022-12-11T01:36:36.635Z,-4.50
2022-12-11T01:39:04.163Z,-4.50
2022-12-11T01:41:31.508Z,-4.50
2022-12-11T01:44:16.794Z,-4.50
2022-12-11T01:46:44.079Z,-4.50
2022-12-11T01:49:14.057Z,-4.50
2022-12-11T01:51:59.446Z,-4.50
2022-12-11T01:54:28.592Z,-4.50
2022-12-11T01:57:02.942Z,-4.50
2022-12-11T01:59:34.383Z,-4.50
2022-12-11T02:02:08.007Z,-4.50
2022-12-11T02:04:37.889Z,-4.50
2022-12-11T02:07:05.503Z,-4.50
2022-12-11T02:09:35.340Z,-4.50
2022-12-11T02:12:10.822Z,-4.50
2022-12-11T02:15:08.718Z,-4.50
2022-12-11T02:17:43.564Z,-4.50
2022-12-11T02:20:43.096Z,-4.50
2022-12-11T02:23:12.909Z,-4.50
2022-12-11T02:26:17.200Z,-4.50
2022-12-11T02:28:51.488Z,-4.40
2022-12-11T02:31:38.833Z,-4.40
2022-12-11T02:34:27.996Z,-4.40
2022-12-11T02:37:02.286Z,-4.50
2022-12-11T02:39:31.985Z,-4.40
2022-12-11T02:41:59.920Z,-4.50
2022-12-11T02:44:30.678Z,-4.50
2022-12-11T02:46:59.690Z,-4.50
2022-12-11T02:49:27.974Z,-4.50
2022-12-11T02:51:57.010Z,-4.50
2022-12-11T02:54:30.339Z,-4.50
2022-12-11T02:57:11.831Z,-4.50
2022-12-11T02:59:42.148Z,-4.50
2022-12-11T03:02:10.638Z,-4.50
2022-12-11T03:04:38.584Z,-4.50
2022-12-11T03:07:13.610Z,-4.50
2022-12-11T03:09:41.742Z,-4.50
2022-12-11T03:12:12.674Z,-4.50
2022-12-11T03:14:41.951Z,-4.50
2022-12-11T03:17:20.231Z,-4.50
2022-12-11T03:20:08.913Z,-4.50
2022-12-11T03:22:44.524Z,-4.50
2022-12-11T03:25:25.212Z,-4.50
2022-12-11T03:27:52.207Z,-4.50
2022-12-11T03:30:21.486Z,-4.50
2022-12-11T03:33:07.702Z,-4.50
2022-12-11T03:35:41.869Z,-4.50
2022-12-11T03:38:26.549Z,-4.50
2022-12-11T03:40:58.536Z,-4.60
2022-12-11T03:43:28.881Z,-4.50
2022-12-11T03:45:57.198Z,-4.50
2022-12-11T03:48:30.993Z,-4.60
2022-12-11T03:51:00.629Z,-4.60
2022-12-11T03:53:28.655Z,-4.60
2022-12-11T03:55:59.148Z,-4.60
2022-12-11T03:58:26.377Z,-4.60
2022-12-11T04:00:53.616Z,-4.60
2022-12-11T04:03:20.854Z,-4.60
2022-12-11T04:05:54.665Z,-4.60
2022-12-11T04:08:23.551Z,-4.60
2022-12-11T04:11:14.416Z,-4.60
2022-12-11T04:13:42.270Z,-4.60
2022-12-11T04:16:09.698Z,-4.60
2022-12-11T04:18:55.592Z,-4.60
2022-12-11T04:21:41.294Z,-4.60
2022-12-11T04:24:15.514Z,-4.60
2022-12-11T04:26:46.739Z,-4.60
2022-12-11T04:29:14.638Z,-4.60
2022-12-11T04:31:41.884Z,-4.60
2022-12-11T04:34:09.269Z,-4.60
2022-12-11T04:36:36.364Z,-4.60
2022-12-11T04:39:04.677Z,-4.60
2022-12-11T04:41:32.497Z,-4.60
2022-12-11T04:43:59.680Z,-4.60
2022-12-11T04:46:26.973Z,-4.60
2022-12-11T04:48:57.633Z,-4.60
2022-12-11T04:51:25.743Z,-4.60
2022-12-11T04:53:53.324Z,-4.60
2022-12-11T04:56:20.658Z,-4.60
2022-12-11T04:58:48.542Z,-4.60
2022-12-11T05:01:18.757Z,-4.60
2022-12-11T05:03:46.160Z,-4.60
2022-12-11T05:06:13.860Z,-4.60
2022-12-11T05:08:42.775Z,-4.60
2022-12-11T05:11:13.491Z,-4.60
2022-12-11T05:13:40.904Z,-4.60
2022-12-11T05:16:10.308Z,-4.60
2022-12-11T05:18:37.702Z,-4.60
2022-12-11T05:21:11.007Z,-4.60
2022-12-11T05:23:40.211Z,-4.60
2022-12-11T05:26:11.155Z,-4.50
2022-12-11T05:28:39.642Z,-4.60
2022-12-11T05:31:16.071Z,-4.60
2022-12-11T05:33:44.673Z,-4.60
2022-12-11T05:36:18.669Z,-4.60
2022-12-11T05:38:45.990Z,-4.50
2022-12-11T05:41:15.951Z,-4.60
2022-12-11T05:43:43.420Z,-4.50
2022-12-11T05:46:16.997Z,-4.50
2022-12-11T05:48:48.606Z,-4.50
2022-12-11T05:51:16.382Z,-4.50
2022-12-11T05:53:44.926Z,-4.50
2022-12-11T05:56:17.698Z,-4.50
2022-12-11T05:58:47.845Z,-4.50
2022-12-11T06:01:27.110Z,-4.50
2022-12-11T06:03:55.720Z,-4.50
2022-12-11T06:06:23.860Z,-4.50
2022-12-11T06:08:52.507Z,-4.50
2022-12-11T06:11:23.964Z,-4.50
2022-12-11T06:13:52.473Z,-4.50
2022-12-11T06:16:20.940Z,-4.50
2022-12-11T06:18:48.265Z,-4.50
2022-12-11T06:21:28.926Z,-4.50
2022-12-11T06:23:56.606Z,-4.50
2022-12-11T06:26:24.845Z,-4.50
2022-12-11T06:28:52.415Z,-4.50
2022-12-11T06:31:20.317Z,-4.50
2022-12-11T06:33:47.801Z,-4.50
2022-12-11T06:36:18.059Z,-4.50
2022-12-11T06:38:45.371Z,-4.50
2022-12-11T06:41:12.983Z,-4.50
2022-12-11T06:43:41.520Z,-4.50
2022-12-11T06:46:11.384Z,-4.40
2022-12-11T06:48:39.197Z,-4.40
2022-12-11T06:51:08.467Z,-4.40
2022-12-11T06:53:36.145Z,-4.40
2022-12-11T06:56:05.331Z,-4.40
2022-12-11T06:58:34.193Z,-4.40
2022-12-11T07:01:02.356Z,-4.40
2022-12-11T07:03:29.890Z,-4.40
2022-12-11T07:06:03.127Z,-4.40
2022-12-11T07:08:32.187Z,-4.40
2022-12-11T07:11:11.040Z,-4.40
2022-12-11T07:13:38.331Z,-4.40
2022-12-11T07:16:11.034Z,-4.40
2022-12-11T07:18:43.105Z,-4.30
2022-12-11T07:21:12.716Z,-4.30
2022-12-11T07:23:40.873Z,-4.30
2022-12-11T07:26:10.940Z,-4.30
2022-12-11T07:28:38.404Z,-4.30
2022-12-11T07:31:11.019Z,-4.30
2022-12-11T07:33:38.591Z,-4.30
2022-12-11T07:36:08.278Z,-4.20
2022-12-11T07:38:36.627Z,-4.20
2022-12-11T07:41:06.618Z,-4.20
2022-12-11T07:43:35.507Z,-4.20
2022-12-11T07:46:04.770Z,-4.20
2022-12-11T07:48:32.232Z,-4.20
2022-12-11T07:51:29.139Z,-4.20
2022-12-11T07:53:58.900Z,-4.20
2022-12-11T07:56:26.731Z,-4.10
2022-12-11T07:58:53.998Z,-4.10
2022-12-11T08:01:24.076Z,-4.10
2022-12-11T08:03:51.164Z,-4.10
2022-12-11T08:06:18.907Z,-4.10
2022-12-11T08:08:47.424Z,-4.10
2022-12-11T08:11:15.883Z,-4.10
2022-12-11T08:13:43.844Z,-4.00
2022-12-11T08:16:14.024Z,-4.00
2022-12-11T08:18:42.420Z,-4.00
2022-12-11T08:21:15.483Z,-4.00
2022-12-11T08:23:43.011Z,-4.00
2022-12-11T08:26:14.763Z,-3.90
2022-12-11T08:28:42.081Z,-3.90
2022-12-11T08:31:10.668Z,-3.90
2022-12-11T08:33:39.403Z,-3.90
2022-12-11T08:36:09.532Z,-3.90
2022-12-11T08:38:37.582Z,-3.90
2022-12-11T08:41:25.542Z,-3.90
2022-12-11T08:43:55.241Z,-3.90
2022-12-11T08:46:24.661Z,-3.80
2022-12-11T08:48:52.121Z,-3.80
2022-12-11T08:51:22.890Z,-3.80
2022-12-11T08:53:51.571Z,-3.80
2022-12-11T08:56:21.806Z,-3.70
2022-12-11T08:58:48.889Z,-3.70
2022-12-11T09:01:19.721Z,-3.70
2022-12-11T09:03:46.832Z,-3.70
2022-12-11T09:06:16.331Z,-3.70
2022-12-11T09:08:51.731Z,-3.70
2022-12-11T09:11:22.649Z,-3.70
2022-12-11T09:13:49.862Z,-3.70
2022-12-11T09:16:19.717Z,-3.70
2022-12-11T09:18:51.569Z,-3.70
2022-12-11T09:21:21.365Z,-3.60
2022-12-11T09:23:48.981Z,-3.60
2022-12-11T09:26:18.151Z,-3.60
2022-12-11T09:28:47.128Z,-3.60
2022-12-11T09:31:18.166Z,-3.60
2022-12-11T09:33:45.421Z,-3.60
2022-12-11T09:36:13.211Z,-3.60
2022-12-11T09:38:40.345Z,-3.60
2022-12-11T09:41:22.876Z,-3.60
2022-12-11T09:44:06.521Z,-3.50
2022-12-11T09:46:36.035Z,-3.50
2022-12-11T09:49:04.996Z,-3.50
2022-12-11T09:51:46.421Z,-3.50
2022-12-11T09:54:15.333Z,-3.50
2022-12-11T09:56:52.722Z,-3.50
2022-12-11T09:59:45.433Z,-3.40
2022-12-11T10:02:47.556Z,-3.40
2022-12-11T10:05:51.852Z,-3.40
2022-12-11T10:08:42.800Z,-3.40
2022-12-11T10:11:34.161Z,-3.40
2022-12-11T10:14:27.162Z,-3.40
2022-12-11T10:17:11.211Z,-3.40
2022-12-11T10:19:41.274Z,-3.40
2022-12-11T10:22:18.787Z,-3.40
2022-12-11T10:25:13.270Z,-3.30
2022-12-11T10:27:41.653Z,-3.30
2022-12-11T10:30:30.397Z,-3.30
2022-12-11T10:33:12.113Z,-3.30
2022-12-11T10:35:44.762Z,-3.40
2022-12-11T10:38:34.042Z,-3.40
2022-12-11T10:41:05.242Z,-3.30
2022-12-11T10:43:34.651Z,-3.30
2022-12-11T10:46:01.767Z,-3.30
2022-12-11T10:48:28.859Z,-3.30
2022-12-11T10:51:02.762Z,-3.30
2022-12-11T10:53:30.901Z,-3.30
2022-12-11T10:56:01.537Z,-3.30
2022-12-11T10:58:29.689Z,-3.30
2022-12-11T11:01:11.209Z,-3.20
2022-12-11T11:04:03.381Z,-3.30
2022-12-11T11:06:30.795Z,-3.20
2022-12-11T11:09:01.621Z,-3.20
2022-12-11T11:11:39.683Z,-3.20
2022-12-11T11:14:21.155Z,-3.20
2022-12-11T11:16:50.552Z,-3.20
2022-12-11T11:19:25.333Z,-3.20
2022-12-11T11:21:57.051Z,-3.20
2022-12-11T11:24:44.133Z,-3.20
2022-12-11T11:27:32.813Z,-3.20
2022-12-11T11:30:04.256Z,-3.30
2022-12-11T11:32:39.214Z,-3.30
2022-12-11T11:35:12.646Z,-3.30
2022-12-11T11:37:53.693Z,-3.30
2022-12-11T11:40:37.637Z,-3.30
2022-12-11T11:43:13.411Z,-3.30
2022-12-11T11:45:50.012Z,-3.30
2022-12-11T11:48:35.632Z,-3.30
2022-12-11T11:51:30.671Z,-3.30
2022-12-11T11:54:02.343Z,-3.30
2022-12-11T11:56:37.740Z,-3.30
2022-12-11T11:59:21.142Z,-3.40
2022-12-11T12:01:48.304Z,-3.40
2022-12-11T12:04:15.438Z,-3.40
2022-12-11T12:07:06.734Z,-3.40
2022-12-11T12:10:01.443Z,-3.40
2022-12-11T12:12:34.184Z,-3.40
2022-12-11T12:15:07.363Z,-3.40
2022-12-11T12:17:55.939Z,-3.40
2022-12-11T12:20:42.194Z,-3.50
2022-12-11T12:23:49.861Z,-3.50
2022-12-11T12:26:36.850Z,-3.50
2022-12-11T12:29:28.765Z,-3.50
2022-12-11T12:32:31.002Z,-3.50
2022-12-11T12:35:36.103Z,-3.50
2022-12-11T12:38:19.581Z,-3.50
2022-12-11T12:41:04.871Z,-3.60
2022-12-11T12:43:35.365Z,-3.60
2022-12-11T12:46:17.656Z,-3.60
2022-12-11T12:48:45.803Z,-3.60
2022-12-11T12:51:16.223Z,-3.70
2022-12-11T12:53:50.081Z,-3.70
2022-12-11T12:56:17.480Z,-3.70
2022-12-11T12:58:46.201Z,-3.70
2022-12-11T13:01:13.341Z,-3.70
2022-12-11T13:03:58.750Z,-3.70
2022-12-11T13:06:35.242Z,-3.70
2022-12-11T13:09:26.800Z,-3.80
2022-12-11T13:11:58.158Z,-3.80
2022-12-11T13:14:34.189Z,-3.80
2022-12-11T13:17:39.948Z,-3.80
2022-12-11T13:20:18.167Z,-3.80
2022-12-11T13:23:05.917Z,-3.80
2022-12-11T13:25:46.263Z,-3.80
2022-12-11T13:28:47.348Z,-3.80
2022-12-11T13:31:14.403Z,-3.80
2022-12-11T13:34:22.965Z,-3.80
2022-12-11T13:36:52.903Z,-3.80
2022-12-11T13:39:29.707Z,-3.80
2022-12-11T13:42:03.124Z,-3.90
2022-12-11T13:44:34.037Z,-3.90
2022-12-11T13:47:03.396Z,-3.90
2022-12-11T13:49:39.966Z,-3.90
2022-12-11T13:52:07.545Z,-3.90
2022-12-11T13:54:37.284Z,-3.90
2022-12-11T13:57:17.062Z,-3.90
2022-12-11T13:59:59.628Z,-3.90
2022-12-11T14:02:42.864Z,-4.00
2022-12-11T14:05:12.679Z,-4.00
2022-12-11T14:07:50.145Z,-4.00
2022-12-11T14:10:24.254Z,-4.00
2022-12-11T14:13:07.858Z,-4.00
2022-12-11T14:15:36.442Z,-4.00
2022-12-11T14:18:05.171Z,-4.00
2022-12-11T14:20:34.539Z,-4.00
2022-12-11T14:23:27.634Z,-4.00
2022-12-11T14:26:16.843Z,-4.00
2022-12-11T14:28:44.374Z,-4.00
2022-12-11T14:31:16.621Z,-4.10
2022-12-11T14:33:56.005Z,-4.10
2022-12-11T14:36:23.803Z,-4.10
2022-12-11T14:39:00.872Z,-4.10
2022-12-11T14:41:39.982Z,-4.10
2022-12-11T14:44:12.756Z,-4.10
2022-12-11T14:46:46.456Z,-4.10
2022-12-11T14:49:41.223Z,-4.10
2022-12-11T14:52:19.522Z,-4.10
2022-12-11T14:54:52.849Z,-4.10
2022-12-11T14:57:23.425Z,-4.10
2022-12-11T14:59:51.324Z,-4.10
2022-12-11T15:02:38.312Z,-4.10
2022-12-11T15:05:18.290Z,-4.10
2022-12-11T15:08:03.240Z,-4.10
2022-12-11T15:11:03.004Z,-4.10
2022-12-11T15:13:31.073Z,-4.10
2022-12-11T15:15:59.485Z,-4.10
2022-12-11T15:18:40.762Z,-4.10
2022-12-11T15:21:11.826Z,-4.10
2022-12-11T15:23:57.847Z,-4.10
2022-12-11T15:26:46.095Z,-4.10
2022-12-11T15:29:37.738Z,-4.10
2022-12-11T15:32:14.266Z,-4.10
2022-12-11T15:34:47.450Z,-4.10
2022-12-11T15:37:21.426Z,-4.10
2022-12-11T15:39:48.669Z,-4.10
2022-12-11T15:42:20.832Z,-4.10
2022-12-11T15:44:47.955Z,-4.10
2022-12-11T15:47:16.065Z,-4.10
2022-12-11T15:49:43.146Z,-4.10
2022-12-11T15:52:10.216Z,-4.10
2022-12-11T15:54:37.691Z,-4.10
2022-12-11T15:57:07.787Z,-4.10
2022-12-11T15:59:35.017Z,-4.10
2022-12-11T16:02:02.060Z,-4.10
2022-12-11T16:04:29.116Z,-4.10
2022-12-11T16:06:56.596Z,-4.10
2022-12-11T16:09:23.685Z,-4.10
2022-12-11T16:11:50.796Z,-4.10
2022-12-11T16:14:17.818Z,-4.10
2022-12-11T16:16:44.917Z,-4.10
2022-12-11T16:19:11.996Z,-4.10
2022-12-11T16:21:39.120Z,-4.10
2022-12-11T16:24:06.345Z,-4.10
2022-12-11T16:26:33.815Z,-4.10
2022-12-11T16:29:01.555Z,-4.10
2022-12-11T16:31:29.085Z,-4.10
2022-12-11T16:33:56.217Z,-4.10
2022-12-11T16:36:23.510Z,-4.10
2022-12-11T16:38:53.847Z,-4.10
2022-12-11T16:41:23.084Z,-4.10
2022-12-11T16:43:50.387Z,-4.10
2022-12-11T16:46:22.105Z,-4.10
2022-12-11T16:48:49.475Z,-4.10
2022-12-11T16:51:17.235Z,-4.10
2022-12-11T16:53:44.697Z,-4.10
2022-12-11T16:56:11.797Z,-4.10
2022-12-11T16:58:40.681Z,-4.10
2022-12-11T17:01:12.972Z,-4.10
2022-12-11T17:03:42.167Z,-4.10
2022-12-11T17:06:12.367Z,-4.10
2022-12-11T17:08:39.894Z,-4.10
2022-12-11T17:11:10.085Z,-4.10
2022-12-11T17:13:37.848Z,-4.10
2022-12-11T17:16:10.797Z,-4.10
2022-12-11T17:18:38.267Z,-4.10
2022-12-11T17:21:11.814Z,-4.10
2022-12-11T17:23:39.363Z,-4.10
2022-12-11T17:26:09.038Z,-4.10
2022-12-11T17:28:37.991Z,-4.10
2022-12-11T17:31:10.324Z,-4.10
2022-12-11T17:33:37.468Z,-4.10
2022-12-11T17:36:06.885Z,-4.20
2022-12-11T17:38:35.467Z,-4.10
2022-12-11T17:41:06.882Z,-4.20
2022-12-11T17:43:34.145Z,-4.20
2022-12-11T17:46:01.459Z,-4.20
2022-12-11T17:48:28.668Z,-4.20
2022-12-11T17:50:55.799Z,-4.20
2022-12-11T17:53:23.366Z,-4.20
2022-12-11T17:55:52.145Z,-4.20
2022-12-11T17:58:22.736Z,-4.20
2022-12-11T18:00:54.381Z,-4.30
2022-12-11T18:03:22.485Z,-4.30
2022-12-11T18:05:52.295Z,-4.30
2022-12-11T18:08:30.034Z,-4.30
2022-12-11T18:10:58.145Z,-4.30
2022-12-11T18:13:25.404Z,-4.30
2022-12-11T18:16:20.442Z,-4.30
2022-12-11T18:18:48.340Z,-4.30
2022-12-11T18:21:19.355Z,-4.30
2022-12-11T18:23:46.600Z,-4.40
2022-12-11T18:26:14.782Z,-4.40
2022-12-11T18:28:42.493Z,-4.40
2022-12-11T18:31:10.845Z,-4.40
2022-12-11T18:33:39.458Z,-4.40
2022-12-11T18:36:07.022Z,-4.40
2022-12-11T18:38:34.419Z,-4.40
2022-12-11T18:41:07.179Z,-4.40
2022-12-11T18:43:35.071Z,-4.40
2022-12-11T18:46:07.311Z,-4.40
2022-12-11T18:48:34.593Z,-4.40
2022-12-11T18:51:05.737Z,-4.50
2022-12-11T18:53:32.859Z,-4.50
2022-12-11T18:56:00.814Z,-4.50
2022-12-11T18:58:27.958Z,-4.50
2022-12-11T19:00:55.723Z,-4.50
2022-12-11T19:03:22.839Z,-4.50
2022-12-11T19:05:50.229Z,-4.50
2022-12-11T19:08:17.424Z,-4.60
2022-12-11T19:10:46.921Z,-4.50
2022-12-11T19:13:15.249Z,-4.60
2022-12-11T19:15:44.079Z,-4.50
2022-12-11T19:18:12.411Z,-4.60
2022-12-11T19:21:06.423Z,-4.60
2022-12-11T19:23:27.419Z,-4.60
2022-12-11T19:25:55.181Z,-4.60
2022-12-11T19:28:22.230Z,-4.60
2022-12-11T19:30:50.279Z,-4.60
2022-12-11T19:33:18.525Z,-4.60
2022-12-11T19:35:45.691Z,-4.60
2022-12-11T19:38:13.499Z,-4.60
2022-12-11T19:40:44.933Z,-4.60
2022-12-11T19:43:12.457Z,-4.60
2022-12-11T19:45:39.599Z,-4.60
2022-12-11T19:48:07.301Z,-4.60
2022-12-11T19:50:36.565Z,-4.60
2022-12-11T19:53:04.020Z,-4.60
2022-12-11T19:55:31.290Z,-4.60
2022-12-11T19:57:58.351Z,-4.60
2022-12-11T20:00:25.773Z,-4.60
2022-12-11T20:02:52.801Z,-4.60
2022-12-11T20:05:20.082Z,-4.60
2022-12-11T20:07:47.195Z,-4.60
2022-12-11T20:10:14.239Z,-4.50
2022-12-11T20:12:41.392Z,-4.50
2022-12-11T20:15:09.070Z,-4.60
2022-12-11T20:17:37.678Z,-4.60
2022-12-11T20:20:05.126Z,-4.50
2022-12-11T20:22:32.119Z,-4.50
2022-12-11T20:24:59.240Z,-4.50
2022-12-11T20:27:27.735Z,-4.50
2022-12-11T20:29:54.909Z,-4.50
2022-12-11T20:32:22.082Z,-4.50
2022-12-11T20:34:49.391Z,-4.40
2022-12-11T20:37:17.123Z,-4.40
2022-12-11T20:39:44.379Z,-4.40
2022-12-11T20:42:11.960Z,-4.40
2022-12-11T20:44:42.705Z,-4.40
2022-12-11T20:47:13.092Z,-4.40
2022-12-11T20:49:40.621Z,-4.30
2022-12-11T20:52:07.719Z,-4.30
2022-12-11T20:54:34.799Z,-4.30
2022-12-11T20:57:02.291Z,-4.30
2022-12-11T20:59:29.479Z,-4.30
2022-12-11T21:01:56.936Z,-4.30
2022-12-11T21:04:24.508Z,-4.30
2022-12-11T21:06:55.550Z,-4.30
2022-12-11T21:09:25.909Z,-4.30
2022-12-11T21:11:53.511Z,-4.20
2022-12-11T21:14:20.815Z,-4.20
2022-12-11T21:16:48.233Z,-4.20
2022-12-11T21:19:20.366Z,-4.20
2022-12-11T21:21:47.872Z,-4.20
2022-12-11T21:24:21.205Z,-4.10
2022-12-11T21:26:49.324Z,-4.10
2022-12-11T21:29:17.106Z,-4.10
2022-12-11T21:31:44.633Z,-4.10
2022-12-11T21:34:11.883Z,-4.10
2022-12-11T21:36:39.066Z,-4.10
2022-12-11T21:39:06.945Z,-4.00
2022-12-11T21:41:34.213Z,-4.10
2022-12-11T21:46:48.672Z,-4.00
2022-12-11T21:49:15.873Z,-4.00
2022-12-11T21:51:47.056Z,-4.00
2022-12-11T21:54:17.703Z,-4.00
2022-12-11T21:56:45.653Z,-4.00
2022-12-11T21:59:13.388Z,-4.00
2022-12-11T22:01:43.260Z,-4.00
2022-12-11T22:04:11.369Z,-4.00
2022-12-11T22:06:40.462Z,-4.00
2022-12-11T22:09:07.747Z,-4.00
2022-12-11T22:11:36.287Z,-3.90
2022-12-11T22:14:03.870Z,-4.00
2022-12-11T22:16:31.134Z,-3.90
2022-12-11T22:18:58.388Z,-4.00
2022-12-11T22:21:25.702Z,-4.00
2022-12-11T22:23:53.189Z,-3.90
2022-12-11T22:26:26.310Z,-4.00
2022-12-11T22:28:53.617Z,-4.00
2022-12-11T22:31:23.549Z,-3.90
2022-12-11T22:33:53.919Z,-3.90
2022-12-11T22:36:22.120Z,-3.90
2022-12-11T22:38:49.291Z,-3.90
2022-12-11T22:41:25.099Z,-3.90
2022-12-11T22:43:52.378Z,-3.90
2022-12-11T22:46:21.804Z,-3.90
2022-12-11T22:48:49.147Z,-4.00
2022-12-11T22:51:16.422Z,-3.90
2022-12-11T22:53:43.952Z,-3.90
2022-12-11T22:56:12.742Z,-3.90
2022-12-11T22:58:40.650Z,-3.90
2022-12-11T23:01:17.160Z,-3.90
2022-12-11T23:03:44.939Z,-3.90
2022-12-11T23:06:14.926Z,-3.90
2022-12-11T23:08:43.134Z,-3.90
2022-12-11T23:11:22.608Z,-3.90
2022-12-11T23:13:49.827Z,-3.90
2022-12-11T23:16:17.267Z,-3.90
2022-12-11T23:18:44.561Z,-3.90
2022-12-11T23:21:12.393Z,-3.90
2022-12-11T23:23:40.415Z,-3.90
2022-12-11T23:26:09.472Z,-3.90
2022-12-11T23:28:36.654Z,-3.90
2022-12-11T23:31:04.898Z,-3.90
2022-12-11T23:33:32.230Z,-3.90
2022-12-11T23:36:00.123Z,-3.90
2022-12-11T23:38:27.444Z,-3.90
2022-12-11T23:40:55.738Z,-3.90
2022-12-11T23:43:23.381Z,-3.90
2022-12-11T23:45:50.800Z,-3.80
2022-12-11T23:48:18.717Z,-3.80
2022-12-11T23:50:46.334Z,-3.80
2022-12-11T23:53:13.584Z,-3.80
2022-12-11T23:55:43.042Z,-3.80
2022-12-11T23:58:11.067Z,-3.80
